createdAt,value
2019-04-29T00:01:08.824Z,6.85
2019-04-29T00:03:37.955Z,6.85
2019-04-29T00:06:07.107Z,6.82
2019-04-29T00:08:36.247Z,6.85
2019-04-29T00:11:05.422Z,6.91
2019-04-29T00:13:34.576Z,6.94
2019-04-29T00:16:19.032Z,6.93
2019-04-29T00:19:06.613Z,7.02
2019-04-29T00:21:35.824Z,6.99
2019-04-29T00:24:05.107Z,6.98
2019-04-29T00:26:34.309Z,7.07
2019-04-29T00:29:03.499Z,7.05
2019-04-29T00:31:32.652Z,7.10
2019-04-29T00:34:01.746Z,7.10
2019-04-29T00:36:36.216Z,7.15
2019-04-29T00:39:25.626Z,7.10
2019-04-29T00:42:23.083Z,7.14
2019-04-29T00:44:52.574Z,7.22
2019-04-29T00:47:21.822Z,7.25
2019-04-29T00:49:50.960Z,7.28
2019-04-29T00:52:20.057Z,7.22
2019-04-29T00:54:57.532Z,7.24
2019-04-29T00:57:26.749Z,7.18
2019-04-29T00:59:55.900Z,7.18
2019-04-29T01:02:25.107Z,7.24
2019-04-29T01:04:54.220Z,7.31
2019-04-29T01:07:23.471Z,7.38
2019-04-29T01:09:52.604Z,7.46
2019-04-29T01:12:21.736Z,7.53
2019-04-29T01:14:52.936Z,7.57
2019-04-29T01:17:21.658Z,7.57
2019-04-29T01:19:50.762Z,7.56
2019-04-29T01:22:19.961Z,7.61
2019-04-29T01:24:49.106Z,7.64
2019-04-29T01:27:26.326Z,7.59
2019-04-29T01:29:55.569Z,7.65
2019-04-29T01:32:24.841Z,7.69
2019-04-29T01:34:55.169Z,7.71
2019-04-29T01:37:39.254Z,7.76
2019-04-29T01:40:33.577Z,7.78
2019-04-29T01:43:02.779Z,7.84
2019-04-29T01:45:31.877Z,7.80
2019-04-29T01:48:00.996Z,7.83
2019-04-29T01:50:30.130Z,7.78
2019-04-29T01:52:59.275Z,7.68
2019-04-29T01:55:28.479Z,7.59
2019-04-29T01:57:57.604Z,7.62
2019-04-29T02:00:26.742Z,7.56
2019-04-29T02:02:55.856Z,7.58
2019-04-29T02:05:24.987Z,7.55
2019-04-29T02:07:54.122Z,7.59
2019-04-29T02:10:29.351Z,7.58
2019-04-29T02:12:58.456Z,7.61
2019-04-29T02:15:27.618Z,7.58
2019-04-29T02:17:56.717Z,7.57
2019-04-29T02:20:25.859Z,7.61
2019-04-29T02:23:13.919Z,7.58
2019-04-29T02:25:44.515Z,7.57
2019-04-29T02:28:13.645Z,7.56
2019-04-29T02:30:46.878Z,7.54
2019-04-29T02:33:15.985Z,7.51
2019-04-29T02:35:45.137Z,7.50
2019-04-29T02:38:33.236Z,7.46
2019-04-29T02:41:15.726Z,7.48
2019-04-29T02:43:46.626Z,7.34
2019-04-29T02:46:15.797Z,7.30
2019-04-29T02:48:44.906Z,7.33
2019-04-29T02:51:16.407Z,7.37
2019-04-29T02:53:45.579Z,7.29
2019-04-29T02:56:14.753Z,7.20
2019-04-29T02:58:52.352Z,7.08
2019-04-29T03:01:40.622Z,7.06
2019-04-29T03:04:14.247Z,6.88
2019-04-29T03:06:43.499Z,6.90
2019-04-29T03:09:12.625Z,6.92
2019-04-29T03:11:41.708Z,6.85
2019-04-29T03:14:10.869Z,6.71
2019-04-29T03:16:40.191Z,6.62
2019-04-29T03:19:16.159Z,6.69
2019-04-29T03:21:54.298Z,6.78
2019-04-29T03:24:23.494Z,6.89
2019-04-29T03:26:52.606Z,7.01
2019-04-29T03:29:24.552Z,7.07
2019-04-29T03:31:55.230Z,7.02
2019-04-29T03:34:24.342Z,7.08
2019-04-29T03:36:53.629Z,7.02
2019-04-29T03:39:22.742Z,7.01
2019-04-29T03:41:51.861Z,7.10
2019-04-29T03:44:21.169Z,7.16
2019-04-29T03:46:50.270Z,7.21
2019-04-29T03:49:19.425Z,7.24
2019-04-29T03:51:48.568Z,7.26
2019-04-29T03:54:17.704Z,7.22
2019-04-29T03:56:46.802Z,7.19
2019-04-29T03:59:15.920Z,7.01
2019-04-29T04:02:03.557Z,7.04
2019-04-29T04:04:50.513Z,7.03
2019-04-29T04:07:44.523Z,7.09
2019-04-29T04:10:13.786Z,7.11
2019-04-29T04:12:42.904Z,7.14
2019-04-29T04:15:12.023Z,7.17
2019-04-29T04:17:46.602Z,7.22
2019-04-29T04:20:15.812Z,7.22
2019-04-29T04:22:48.550Z,7.23
2019-04-29T04:25:18.468Z,7.08
2019-04-29T04:27:47.802Z,7.07
2019-04-29T04:30:17.405Z,7.01
2019-04-29T04:32:46.521Z,7.03
2019-04-29T04:35:16.272Z,6.97
2019-04-29T04:37:45.441Z,6.91
2019-04-29T04:40:19.520Z,6.93
2019-04-29T04:42:48.636Z,6.84
2019-04-29T04:45:17.843Z,6.51
2019-04-29T04:47:46.974Z,6.58
2019-04-29T04:50:16.107Z,6.56
2019-04-29T04:52:45.224Z,6.50
2019-04-29T04:55:14.510Z,6.54
2019-04-29T04:57:43.703Z,6.60
2019-04-29T05:00:20.284Z,6.65
2019-04-29T05:02:49.513Z,6.72
2019-04-29T05:05:18.645Z,6.67
2019-04-29T05:07:47.783Z,6.72
2019-04-29T05:10:16.909Z,6.71
2019-04-29T05:12:46.180Z,6.75
2019-04-29T05:15:15.419Z,6.78
2019-04-29T05:17:44.557Z,6.82
2019-04-29T05:20:13.776Z,6.88
2019-04-29T05:22:59.228Z,6.83
2019-04-29T05:25:33.176Z,6.87
2019-04-29T05:28:02.570Z,6.96
2019-04-29T05:30:31.777Z,6.97
2019-04-29T05:33:00.962Z,7.08
2019-04-29T05:35:46.138Z,7.17
2019-04-29T05:38:52.414Z,7.08
2019-04-29T05:41:23.342Z,7.16
2019-04-29T05:44:14.456Z,7.19
2019-04-29T05:46:56.863Z,7.23
2019-04-29T05:49:31.523Z,7.13
2019-04-29T05:52:17.573Z,7.26
2019-04-29T05:54:46.805Z,7.20
2019-04-29T05:57:15.933Z,7.28
2019-04-29T05:59:47.872Z,7.25
2019-04-29T06:02:16.021Z,7.32
2019-04-29T06:04:48.153Z,7.35
2019-04-29T06:07:21.312Z,7.42
2019-04-29T06:09:47.385Z,7.50
2019-04-29T06:12:16.493Z,7.47
2019-04-29T06:14:45.617Z,7.48
2019-04-29T06:17:14.785Z,7.30
2019-04-29T06:19:43.907Z,7.31
2019-04-29T06:22:13.215Z,7.33
2019-04-29T06:24:42.393Z,7.27
2019-04-29T06:27:11.501Z,7.33
2019-04-29T06:29:40.663Z,7.22
2019-04-29T06:32:09.826Z,7.15
2019-04-29T06:34:40.040Z,7.06
2019-04-29T06:37:09.923Z,7.20
2019-04-29T06:39:39.084Z,7.20
2019-04-29T06:42:08.234Z,7.26
2019-04-29T06:44:37.391Z,7.26
2019-04-29T06:47:06.543Z,7.24
2019-04-29T06:49:35.685Z,7.38
2019-04-29T06:52:04.811Z,7.44
2019-04-29T06:54:34.032Z,7.51
2019-04-29T06:57:03.212Z,7.56
2019-04-29T06:59:32.412Z,7.66
2019-04-29T07:02:01.561Z,7.78
2019-04-29T07:04:36.066Z,7.75
2019-04-29T07:07:01.557Z,7.73
2019-04-29T07:09:31.049Z,7.76
2019-04-29T07:12:01.570Z,7.80
2019-04-29T07:14:33.249Z,7.95
2019-04-29T07:17:05.736Z,8.03
2019-04-29T07:19:32.919Z,8.18
2019-04-29T07:22:02.037Z,8.25
2019-04-29T07:24:31.199Z,8.24
2019-04-29T07:27:02.844Z,8.33
2019-04-29T07:29:32.689Z,8.29
2019-04-29T07:32:04.687Z,8.23
2019-04-29T07:34:33.823Z,8.29
2019-04-29T07:37:03.944Z,8.29
2019-04-29T07:39:33.469Z,8.34
2019-04-29T07:42:03.402Z,8.35
2019-04-29T07:44:44.233Z,8.46
2019-04-29T07:47:09.981Z,8.55
2019-04-29T07:49:39.185Z,8.45
2019-04-29T07:52:09.770Z,8.46
2019-04-29T07:54:39.248Z,8.50
2019-04-29T07:57:08.402Z,8.53
2019-04-29T07:59:38.373Z,8.63
2019-04-29T08:02:08.417Z,8.70
2019-04-29T08:04:40.317Z,8.79
2019-04-29T08:07:08.480Z,8.84
2019-04-29T08:09:39.870Z,8.75
2019-04-29T08:12:10.627Z,8.82
2019-04-29T08:14:40.145Z,8.77
2019-04-29T08:17:09.424Z,8.82
2019-04-29T08:19:38.641Z,8.72
2019-04-29T08:22:07.779Z,8.89
2019-04-29T08:24:37.552Z,8.96
2019-04-29T08:27:06.767Z,9.01
2019-04-29T08:29:37.377Z,9.03
2019-04-29T08:32:06.607Z,9.14
2019-04-29T08:34:35.739Z,9.23
2019-04-29T08:37:04.893Z,9.23
2019-04-29T08:39:34.041Z,9.15
2019-04-29T08:42:08.979Z,9.28
2019-04-29T08:44:54.619Z,9.36
2019-04-29T08:47:31.415Z,9.34
2019-04-29T08:49:58.441Z,9.33
2019-04-29T08:52:27.668Z,9.48
2019-04-29T08:54:57.373Z,9.50
2019-04-29T08:57:26.563Z,9.55
2019-04-29T08:59:55.796Z,9.53
2019-04-29T09:02:34.547Z,9.67
2019-04-29T09:04:55.840Z,9.77
2019-04-29T09:07:25.005Z,9.88
2019-04-29T09:09:56.146Z,9.69
2019-04-29T09:12:29.403Z,9.57
2019-04-29T09:14:55.947Z,9.48
2019-04-29T09:17:25.083Z,9.53
2019-04-29T09:19:54.178Z,9.67
2019-04-29T09:22:25.057Z,9.82
2019-04-29T09:25:31.922Z,9.88
2019-04-29T09:28:04.191Z,9.76
2019-04-29T09:30:33.304Z,9.97
2019-04-29T09:33:02.626Z,9.98
2019-04-29T09:35:33.802Z,10.15
2019-04-29T09:38:04.902Z,10.20
2019-04-29T09:40:37.041Z,10.15
2019-04-29T09:43:32.917Z,10.09
2019-04-29T09:46:08.645Z,10.10
2019-04-29T09:48:48.675Z,10.07
2019-04-29T09:51:22.159Z,10.12
2019-04-29T09:53:48.781Z,9.88
2019-04-29T09:56:17.936Z,9.93
2019-04-29T09:58:47.115Z,9.87
2019-04-29T10:01:33.168Z,9.84
2019-04-29T10:04:26.247Z,9.84
2019-04-29T10:06:57.389Z,9.77
2019-04-29T10:09:26.515Z,9.54
2019-04-29T10:11:55.647Z,9.32
2019-04-29T10:14:24.898Z,9.35
2019-04-29T10:17:16.702Z,9.42
2019-04-29T10:20:10.790Z,9.50
2019-04-29T10:22:39.983Z,9.59
2019-04-29T10:25:09.214Z,9.76
2019-04-29T10:27:38.322Z,9.92
2019-04-29T10:30:08.129Z,9.93
2019-04-29T10:32:37.720Z,9.99
2019-04-29T10:35:10.535Z,10.06
2019-04-29T10:37:39.594Z,10.15
2019-04-29T10:40:40.486Z,10.23
2019-04-29T10:43:18.247Z,10.21
2019-04-29T10:46:26.056Z,10.14
2019-04-29T10:49:03.656Z,9.99
2019-04-29T10:51:31.206Z,9.76
2019-04-29T10:54:00.348Z,9.69
2019-04-29T10:56:29.578Z,9.61
2019-04-29T10:58:58.932Z,9.57
2019-04-29T11:02:18.164Z,9.51
2019-04-29T11:04:48.742Z,9.44
2019-04-29T11:07:30.910Z,9.35
2019-04-29T11:10:07.986Z,9.19
2019-04-29T11:12:36.532Z,9.35
2019-04-29T11:15:09.892Z,9.34
2019-04-29T11:17:39.827Z,9.28
2019-04-29T11:20:11.273Z,9.18
2019-04-29T11:22:44.952Z,9.22
2019-04-29T11:25:32.386Z,9.37
2019-04-29T11:28:01.607Z,9.63
2019-04-29T11:30:34.868Z,9.72
2019-04-29T11:33:10.614Z,9.88
2019-04-29T11:35:59.276Z,9.91
2019-04-29T11:38:32.950Z,9.88
2019-04-29T11:41:01.841Z,9.99
2019-04-29T11:43:31.519Z,9.73
2019-04-29T11:46:00.632Z,9.86
2019-04-29T11:48:29.998Z,9.83
2019-04-29T11:51:34.092Z,9.73
2019-04-29T11:54:02.928Z,9.77
2019-04-29T11:56:32.259Z,9.78
2019-04-29T11:59:08.063Z,9.96
2019-04-29T12:01:51.479Z,9.99
2019-04-29T12:04:28.526Z,10.08
2019-04-29T12:06:58.324Z,10.04
2019-04-29T12:09:30.456Z,9.98
2019-04-29T12:11:58.481Z,9.94
2019-04-29T12:14:39.053Z,10.03
2019-04-29T12:17:30.520Z,10.02
2019-04-29T12:20:03.274Z,9.82
2019-04-29T12:22:32.573Z,9.72
2019-04-29T12:25:01.642Z,9.80
2019-04-29T12:27:30.777Z,9.83
2019-04-29T12:30:00.005Z,9.77
2019-04-29T12:32:56.698Z,9.98
2019-04-29T12:35:32.584Z,9.97
2019-04-29T12:38:21.690Z,10.03
2019-04-29T12:41:20.209Z,9.87
2019-04-29T12:44:00.496Z,9.87
2019-04-29T12:46:35.018Z,9.80
2019-04-29T12:49:08.585Z,9.85
2019-04-29T12:51:35.468Z,9.93
2019-04-29T12:54:04.723Z,10.03
2019-04-29T12:56:36.194Z,10.21
2019-04-29T12:59:05.865Z,10.16
2019-04-29T13:02:06.365Z,10.27
2019-04-29T13:04:57.519Z,10.37
2019-04-29T13:07:50.092Z,10.40
2019-04-29T13:10:24.716Z,10.38
2019-04-29T13:12:53.863Z,10.26
2019-04-29T13:15:57.626Z,10.43
2019-04-29T13:19:10.754Z,10.37
2019-04-29T13:21:29.854Z,10.44
2019-04-29T13:24:13.375Z,10.58
2019-04-29T13:26:33.245Z,10.32
2019-04-29T13:29:01.717Z,10.23
2019-04-29T13:31:38.667Z,9.93
2019-04-29T13:34:22.368Z,9.85
2019-04-29T13:36:34.523Z,9.64
2019-04-29T13:39:04.688Z,9.69
2019-04-29T13:41:33.894Z,9.79
2019-04-29T13:44:05.293Z,9.71
2019-04-29T13:46:51.197Z,9.96
2019-04-29T13:49:31.574Z,10.20
2019-04-29T13:52:01.106Z,10.28
2019-04-29T13:54:30.254Z,10.41
2019-04-29T13:57:07.887Z,10.37
2019-04-29T13:59:52.102Z,10.41
2019-04-29T14:02:32.300Z,10.08
2019-04-29T14:05:02.184Z,9.99
2019-04-29T14:07:31.558Z,10.13
2019-04-29T14:10:00.819Z,10.22
2019-04-29T14:15:01.010Z,10.21
2019-04-29T14:17:31.712Z,10.10
2019-04-29T14:20:03.563Z,10.23
2019-04-29T14:22:32.782Z,10.26
2019-04-29T14:25:03.163Z,10.32
2019-04-29T14:27:32.304Z,10.36
2019-04-29T14:30:03.097Z,10.50
2019-04-29T14:32:35.978Z,10.52
2019-04-29T14:35:15.916Z,10.55
2019-04-29T14:37:54.997Z,10.41
2019-04-29T14:40:16.211Z,10.41
2019-04-29T14:42:57.884Z,10.24
2019-04-29T14:45:58.112Z,10.18
2019-04-29T14:48:42.072Z,10.13
2019-04-29T14:51:02.879Z,10.07
2019-04-29T14:53:32.033Z,10.05
2019-04-29T14:56:01.210Z,9.97
2019-04-29T14:58:30.382Z,10.02
2019-04-29T15:01:30.711Z,9.91
2019-04-29T15:04:16.617Z,9.93
2019-04-29T15:06:32.939Z,9.88
2019-04-29T15:09:02.314Z,9.76
2019-04-29T15:11:41.093Z,9.62
2019-04-29T15:14:28.101Z,9.56
2019-04-29T15:17:04.512Z,9.48
2019-04-29T15:20:01.415Z,9.31
2019-04-29T15:22:33.947Z,9.26
2019-04-29T15:25:03.137Z,9.20
2019-04-29T15:27:34.592Z,9.15
2019-04-29T15:30:04.178Z,9.30
2019-04-29T15:32:33.340Z,9.35
2019-04-29T15:35:02.543Z,9.43
2019-04-29T15:37:31.681Z,9.49
2019-04-29T15:40:00.972Z,9.58
2019-04-29T15:42:30.186Z,9.64
2019-04-29T15:44:59.362Z,9.55
2019-04-29T15:47:31.352Z,9.66
2019-04-29T15:50:00.674Z,9.68
2019-04-29T15:52:30.328Z,9.60
2019-04-29T15:54:59.558Z,9.48
2019-04-29T15:57:28.746Z,9.47
2019-04-29T16:00:00.032Z,9.40
2019-04-29T16:02:29.012Z,9.40
2019-04-29T16:05:04.794Z,9.15
2019-04-29T16:07:55.788Z,9.09
2019-04-29T16:10:51.769Z,9.04
2019-04-29T16:13:22.459Z,8.97
2019-04-29T16:15:53.358Z,8.84
2019-04-29T16:18:22.500Z,8.92
2019-04-29T16:20:54.168Z,8.86
2019-04-29T16:23:22.573Z,8.95
2019-04-29T16:25:54.512Z,9.01
2019-04-29T16:28:30.934Z,9.09
2019-04-29T16:30:54.980Z,9.08
2019-04-29T16:33:24.120Z,9.15
2019-04-29T16:35:57.546Z,9.09
2019-04-29T16:38:24.450Z,9.08
2019-04-29T16:41:01.490Z,9.09
2019-04-29T16:43:37.631Z,9.00
2019-04-29T16:46:17.006Z,8.91
2019-04-29T16:48:46.167Z,9.02
2019-04-29T16:51:16.638Z,9.00
2019-04-29T16:53:46.034Z,9.13
2019-04-29T16:58:46.216Z,9.15
2019-04-29T17:01:15.566Z,9.20
2019-04-29T17:03:45.584Z,9.24
2019-04-29T17:06:14.824Z,9.23
2019-04-29T17:09:04.980Z,9.23
2019-04-29T17:11:34.061Z,9.07
2019-04-29T17:14:09.888Z,8.99
2019-04-29T17:16:34.194Z,9.09
2019-04-29T17:19:03.381Z,9.12
2019-04-29T17:21:32.569Z,9.07
2019-04-29T17:24:01.768Z,8.98
2019-04-29T17:26:40.806Z,8.93
2019-04-29T17:29:40.832Z,8.88
2019-04-29T17:32:28.175Z,8.95
2019-04-29T17:34:59.780Z,8.95
2019-04-29T17:35:14.556Z,9.12
2019-04-29T17:37:28.866Z,8.94
2019-04-29T17:39:58.169Z,8.87
2019-04-29T17:42:29.509Z,8.78
2019-04-29T17:45:01.374Z,8.78
2019-04-29T17:47:51.887Z,8.80
2019-04-29T17:50:46.194Z,8.71
2019-04-29T17:53:19.642Z,8.77
2019-04-29T17:55:58.407Z,8.80
2019-04-29T17:58:32.829Z,8.83
2019-04-29T18:01:28.984Z,8.68
2019-04-29T18:04:20.256Z,8.52
2019-04-29T18:07:08.211Z,8.68
2019-04-29T18:09:44.945Z,8.66
2019-04-29T18:12:24.932Z,8.63
2019-04-29T18:14:55.132Z,8.59
2019-04-29T18:17:31.167Z,8.54
2019-04-29T18:20:17.641Z,8.49
2019-04-29T18:23:19.147Z,8.49
2019-04-29T18:26:04.899Z,8.49
2019-04-29T18:28:37.151Z,8.45
2019-04-29T18:31:07.275Z,8.49
2019-04-29T18:33:36.507Z,8.37
2019-04-29T18:36:07.038Z,8.27
2019-04-29T18:38:36.469Z,8.18
2019-04-29T18:41:05.772Z,8.35
2019-04-29T18:43:35.387Z,8.35
2019-04-29T18:46:06.047Z,8.36
2019-04-29T18:48:36.595Z,8.28
2019-04-29T18:51:06.391Z,8.34
2019-04-29T18:53:35.893Z,8.41
2019-04-29T18:56:05.375Z,8.43
2019-04-29T18:58:35.607Z,8.31
2019-04-29T19:01:05.407Z,8.25
2019-04-29T19:04:00.650Z,8.22
2019-04-29T19:06:30.515Z,8.21
2019-04-29T19:09:01.553Z,8.19
2019-04-29T19:11:32.789Z,8.30
2019-04-29T19:14:02.271Z,8.30
2019-04-29T19:16:31.628Z,8.21
2019-04-29T19:19:02.022Z,8.29
2019-04-29T19:21:31.662Z,8.24
2019-04-29T19:24:01.103Z,8.19
2019-04-29T19:26:30.446Z,8.19
2019-04-29T19:29:01.345Z,8.17
2019-04-29T19:31:30.598Z,8.17
2019-04-29T19:33:59.932Z,8.25
2019-04-29T19:36:29.203Z,8.28
2019-04-29T19:38:58.958Z,8.15
2019-04-29T19:41:28.189Z,8.13
2019-04-29T19:43:57.434Z,8.22
2019-04-29T19:46:36.999Z,8.16
2019-04-29T19:49:05.400Z,8.24
2019-04-29T19:51:29.179Z,8.25
2019-04-29T19:53:58.696Z,8.18
2019-04-29T19:56:28.116Z,8.13
2019-04-29T19:58:58.403Z,8.04
2019-04-29T20:01:31.912Z,8.08
2019-04-29T20:04:22.153Z,8.16
2019-04-29T20:06:48.792Z,8.19
2019-04-29T20:09:22.512Z,8.25
2019-04-29T20:11:52.158Z,8.25
2019-04-29T20:14:29.199Z,8.30
2019-04-29T20:17:17.227Z,8.26
2019-04-29T20:19:55.042Z,8.27
2019-04-29T20:22:21.197Z,8.25
2019-04-29T20:24:50.925Z,8.26
2019-04-29T20:27:21.131Z,8.22
2019-04-29T20:29:50.852Z,8.17
2019-04-29T20:32:22.536Z,8.09
2019-04-29T20:34:51.677Z,8.07
2019-04-29T20:37:21.168Z,8.17
2019-04-29T20:39:52.008Z,8.15
2019-04-29T20:42:21.516Z,8.13
2019-04-29T20:44:50.844Z,8.15
2019-04-29T20:47:23.666Z,8.02
2019-04-29T20:49:51.876Z,8.07
2019-04-29T20:52:40.297Z,7.89
2019-04-29T20:55:10.057Z,7.87
2019-04-29T20:57:39.525Z,7.90
2019-04-29T21:00:09.777Z,7.92
2019-04-29T21:02:39.241Z,7.79
2019-04-29T21:05:09.998Z,7.87
2019-04-29T21:07:39.845Z,7.97
2019-04-29T21:10:09.196Z,7.90
2019-04-29T21:12:49.826Z,7.83
2019-04-29T21:15:27.312Z,7.72
2019-04-29T21:17:58.651Z,7.57
2019-04-29T21:20:27.498Z,7.65
2019-04-29T21:23:00.885Z,7.65
2019-04-29T21:25:29.422Z,7.65
2019-04-29T21:28:02.246Z,7.62
2019-04-29T21:30:35.533Z,7.62
2019-04-29T21:33:01.116Z,7.67
2019-04-29T21:35:37.798Z,7.64
2019-04-29T21:38:35.352Z,7.61
2019-04-29T21:41:08.120Z,7.50
2019-04-29T21:43:39.317Z,7.50
2019-04-29T21:46:08.476Z,7.56
2019-04-29T21:48:37.583Z,7.64
2019-04-29T21:51:11.003Z,7.62
2019-04-29T21:53:40.252Z,7.68
2019-04-29T21:56:09.420Z,7.67
2019-04-29T21:58:38.851Z,7.64
2019-04-29T22:01:09.282Z,7.71
2019-04-29T22:03:38.412Z,7.64
2019-04-29T22:06:07.575Z,7.71
2019-04-29T22:08:36.722Z,7.65
2019-04-29T22:11:07.013Z,7.71
2019-04-29T22:13:39.037Z,7.75
2019-04-29T22:16:11.363Z,7.59
2019-04-29T22:18:38.445Z,7.70
2019-04-29T22:21:10.016Z,7.56
2019-04-29T22:23:38.442Z,7.44
2019-04-29T22:26:07.630Z,7.56
2019-04-29T22:28:36.780Z,7.51
2019-04-29T22:31:07.769Z,7.47
2019-04-29T22:33:38.608Z,7.45
2019-04-29T22:36:10.119Z,7.45
2019-04-29T22:38:38.868Z,7.43
2019-04-29T22:41:11.997Z,7.45
2019-04-29T22:43:52.443Z,7.48
2019-04-29T22:46:21.579Z,7.42
2019-04-29T22:48:50.742Z,7.40
2019-04-29T22:51:19.933Z,7.43
2019-04-29T22:53:49.164Z,7.37
2019-04-29T22:56:18.395Z,7.34
2019-04-29T22:58:47.586Z,7.42
2019-04-29T23:01:17.833Z,7.42
2019-04-29T23:03:47.245Z,7.47
2019-04-29T23:06:16.491Z,7.44
2019-04-29T23:08:45.607Z,7.28
2019-04-29T23:11:14.798Z,7.28
2019-04-29T23:13:45.851Z,7.27
2019-04-29T23:16:14.832Z,7.27
2019-04-29T23:18:45.755Z,7.28
2019-04-29T23:21:43.254Z,7.30
2019-04-29T23:24:21.127Z,7.24
2019-04-29T23:26:50.359Z,7.29
2019-04-29T23:29:19.529Z,7.19
2019-04-29T23:31:48.679Z,7.18
2019-04-29T23:34:17.800Z,7.20
2019-04-29T23:36:48.919Z,7.07
2019-04-29T23:39:17.763Z,7.19
2019-04-29T23:41:46.897Z,7.20
2019-04-29T23:44:16.024Z,7.19
2019-04-29T23:46:47.504Z,7.21
2019-04-29T23:49:16.640Z,7.24
2019-04-29T23:51:46.458Z,7.33
2019-04-29T23:54:15.787Z,7.23
2019-04-29T23:57:05.996Z,7.31
2019-04-29T23:59:36.168Z,7.32
